Time;durP1;ratioP1;P1;durP2;ratioP2;P2;SDS_P1;SDS_P2;PMS_P1;PMS_P2;Temp;Humidity;BMP_temperature;BMP_pressure;BME280_temperature;BME280_humidity;BME280_pressure;Samples;Min_cycle;Max_cycle;Signal;HPM_P1;HPM_P2
2020/12/29 00:01:37;;;;;;;2.23;1.80;;;;;;;4.53;62.73;93262.00;5065520;28;20441;-69
2020/12/29 00:04:04;;;;;;;2.33;1.57;;;;;;;4.43;63.89;93255.47;5071283;28;20436;-70
2020/12/29 00:06:30;;;;;;;2.60;1.70;;;;;;;4.26;65.51;93264.78;5068550;28;20444;-70
2020/12/29 00:08:56;;;;;;;2.23;2.00;;;;;;;4.30;66.06;93264.16;5071627;28;20476;-70
2020/12/29 00:11:22;;;;;;;1.57;1.37;;;;;;;4.30;66.58;93266.75;5070606;28;20225;-70
2020/12/29 00:13:48;;;;;;;2.93;1.90;;;;;;;4.24;66.98;93257.19;5072026;28;20431;-69
2020/12/29 00:16:13;;;;;;;2.83;1.57;;;;;;;4.38;66.54;93255.34;5029785;28;20178;-68
2020/12/29 00:18:39;;;;;;;1.50;1.40;;;;;;;3.91;67.73;93249.63;5063644;28;20182;-69
2020/12/29 00:21:05;;;;;;;2.20;1.80;;;;;;;4.02;68.02;93249.00;5071417;28;20788;-70
2020/12/29 00:23:31;;;;;;;1.20;1.10;;;;;;;4.26;67.52;93251.81;5070304;28;20181;-70
2020/12/29 00:25:57;;;;;;;1.63;1.40;;;;;;;4.26;67.78;93259.59;5021366;28;20657;-68
2020/12/29 00:28:23;;;;;;;1.50;1.40;;;;;;;4.09;68.28;93252.31;5068850;28;20436;-70
2020/12/29 00:30:48;;;;;;;1.70;1.60;;;;;;;4.12;68.08;93259.69;5071599;28;20444;-69
2020/12/29 00:33:14;;;;;;;1.33;1.23;;;;;;;4.22;67.64;93255.84;5070567;28;20178;-69
2020/12/29 00:35:40;;;;;;;2.83;1.20;;;;;;;4.59;67.09;93254.19;5072045;28;20249;-68
2020/12/29 00:38:05;;;;;;;2.33;1.23;;;;;;;4.46;67.23;93265.44;5070170;28;20178;-69
2020/12/29 00:40:31;;;;;;;1.07;0.90;;;;;;;4.50;66.94;93270.22;5071244;28;20198;-68
2020/12/29 00:42:57;;;;;;;1.20;1.10;;;;;;;4.45;67.41;93271.63;5068628;28;20629;-69
2020/12/29 00:45:22;;;;;;;1.10;1.00;;;;;;;4.51;67.35;93269.97;5070336;28;20210;-70
2020/12/29 00:47:48;;;;;;;1.50;0.90;;;;;;;4.45;67.36;93271.63;5072055;28;20186;-69
2020/12/29 00:50:14;;;;;;;0.87;0.80;;;;;;;4.69;66.69;93269.25;5071730;28;20688;-69
2020/12/29 00:52:39;;;;;;;1.10;1.00;;;;;;;4.76;65.69;93261.41;5070553;28;20596;-69
2020/12/29 00:55:05;;;;;;;1.10;1.00;;;;;;;4.65;66.39;93275.88;5055813;28;20201;-68
2020/12/29 00:57:31;;;;;;;1.20;0.93;;;;;;;4.57;66.48;93289.09;5063357;28;20247;-69
2020/12/29 00:59:56;;;;;;;1.00;0.90;;;;;;;4.59;66.90;93302.63;5068652;28;20582;-68
2020/12/29 01:02:22;;;;;;;1.80;1.03;;;;;;;4.78;66.74;93298.31;5074711;28;20189;-70
2020/12/29 01:04:48;;;;;;;1.63;1.13;;;;;;;4.43;68.59;93289.19;5056195;28;20555;-69
2020/12/29 01:07:13;;;;;;;1.37;0.80;;;;;;;4.51;68.16;93301.09;5076529;28;20189;-68
2020/12/29 01:09:39;;;;;;;2.23;1.13;;;;;;;4.68;68.68;93290.22;5075975;28;20193;-69
2020/12/29 01:12:05;;;;;;;3.33;1.13;;;;;;;4.64;68.81;93289.03;5075108;28;20240;-69
2020/12/29 01:14:31;;;;;;;1.27;1.17;;;;;;;4.65;68.31;93285.44;5074748;28;20467;-68
2020/12/29 01:16:56;;;;;;;1.30;1.20;;;;;;;4.64;69.13;93283.84;5058587;28;20436;-70
2020/12/29 01:19:22;;;;;;;1.00;0.90;;;;;;;4.46;70.32;93286.19;5075304;28;20274;-68
2020/12/29 01:21:51;;;;;;;1.93;1.20;;;;;;;4.50;69.92;93280.56;5075084;28;20202;-70
2020/12/29 01:24:17;;;;;;;1.93;1.20;;;;;;;4.54;69.58;93285.13;5049006;28;20186;-71
2020/12/29 01:26:42;;;;;;;1.10;1.00;;;;;;;4.47;70.64;93294.75;5047430;28;20425;-70
2020/12/29 01:29:08;;;;;;;1.40;1.30;;;;;;;4.78;69.19;93302.72;5074731;28;20174;-69
2020/12/29 01:31:34;;;;;;;1.53;1.20;;;;;;;4.41;71.04;93305.97;5075189;28;20205;-70
2020/12/29 01:34:00;;;;;;;1.40;1.10;;;;;;;4.52;70.44;93300.09;5074667;28;20239;-70
2020/12/29 01:36:26;;;;;;;1.93;1.20;;;;;;;4.39;71.56;93308.78;5048121;28;20550;-69
2020/12/29 01:38:53;;;;;;;1.70;1.20;;;;;;;4.29;71.42;93305.81;5074348;28;20420;-69
2020/12/29 01:41:19;;;;;;;1.27;1.10;;;;;;;4.64;70.11;93310.59;5073418;28;20441;-69
2020/12/29 01:43:45;;;;;;;1.37;1.27;;;;;;;4.48;70.65;93305.91;5074440;28;20436;-68
2020/12/29 01:46:11;;;;;;;1.20;1.10;;;;;;;4.30;70.88;93304.81;5057084;28;20456;-70
2020/12/29 01:48:37;;;;;;;1.13;1.03;;;;;;;4.50;70.92;93309.09;5074064;28;20444;-70
2020/12/29 01:51:03;;;;;;;1.30;1.20;;;;;;;4.76;69.60;93311.50;5074642;28;20256;-71
2020/12/29 01:53:29;;;;;;;1.30;1.03;;;;;;;4.50;70.81;93312.47;5069267;28;20179;-71
2020/12/29 01:55:54;;;;;;;1.10;1.00;;;;;;;4.39;70.94;93301.00;5058166;28;20474;-71
2020/12/29 01:58:20;;;;;;;1.20;1.10;;;;;;;4.59;71.04;93307.81;5077197;28;20201;-72
2020/12/29 02:00:47;;;;;;;1.37;1.20;;;;;;;4.81;69.54;93302.28;5076458;28;20210;-71
2020/12/29 02:03:14;;;;;;;1.00;0.90;;;;;;;4.61;70.28;93303.22;5077268;28;20183;-71
2020/12/29 02:05:41;;;;;;;1.20;1.10;;;;;;;4.66;70.30;93305.19;5077216;28;20464;-72
2020/12/29 02:08:08;;;;;;;1.10;1.00;;;;;;;4.63;69.94;93306.41;5078771;28;20445;-70
2020/12/29 02:10:34;;;;;;;1.27;0.90;;;;;;;4.85;69.12;93311.22;5062226;28;20456;-71
2020/12/29 02:13:00;;;;;;;1.77;1.07;;;;;;;4.88;69.74;93316.00;5076702;28;20485;-71
2020/12/29 02:15:26;;;;;;;1.00;0.90;;;;;;;5.12;68.56;93321.38;5070047;28;20921;-71
2020/12/29 02:17:51;;;;;;;2.70;1.00;;;;;;;4.66;70.08;93313.78;5054058;28;20197;-70
2020/12/29 02:20:17;;;;;;;1.10;0.87;;;;;;;4.93;69.29;93313.53;5074552;28;20668;-69
2020/12/29 02:22:43;;;;;;;1.43;1.20;;;;;;;4.78;69.92;93315.69;5074556;28;20617;-70
2020/12/29 02:25:10;;;;;;;1.00;0.80;;;;;;;4.76;69.57;93316.69;5056769;28;20259;-72
2020/12/29 02:27:47;;;;;;;1.40;1.00;;;;;;;4.95;68.85;93313.34;5073502;28;20208;-71
2020/12/29 02:30:14;;;;;;;0.93;0.83;;;;;;;5.02;68.61;93330.47;5082888;28;20491;-70
2020/12/29 02:32:40;;;;;;;1.50;0.80;;;;;;;5.06;68.83;93318.63;5074718;28;20496;-71
2020/12/29 02:35:07;;;;;;;1.30;0.70;;;;;;;4.92;69.27;93330.13;5073226;28;20957;-71
2020/12/29 02:37:33;;;;;;;1.53;0.70;;;;;;;4.87;68.81;93340.34;5072450;28;20182;-72
2020/12/29 02:39:58;;;;;;;0.90;0.70;;;;;;;4.87;69.28;93346.31;5073105;28;20424;-71
2020/12/29 02:42:24;;;;;;;2.27;0.80;;;;;;;5.11;68.43;93350.94;5073771;28;20182;-70
2020/12/29 02:44:50;;;;;;;0.90;0.70;;;;;;;5.08;69.42;93346.97;5073198;28;20237;-71
2020/12/29 02:47:15;;;;;;;0.90;0.70;;;;;;;4.94;69.02;93348.88;5073168;28;20555;-69
2020/12/29 02:49:41;;;;;;;0.80;0.60;;;;;;;5.01;68.96;93357.41;5072468;28;20567;-72
2020/12/29 02:52:07;;;;;;;0.93;0.70;;;;;;;5.15;68.96;93362.50;5064877;28;20306;-71
2020/12/29 02:54:33;;;;;;;0.80;0.60;;;;;;;4.91;69.81;93362.28;5050065;28;20191;-70
2020/12/29 02:56:59;;;;;;;1.70;0.80;;;;;;;4.83;70.16;93365.13;5060679;28;20486;-72
2020/12/29 02:59:25;;;;;;;0.90;0.80;;;;;;;4.78;70.02;93362.38;5072814;28;20499;-72
2020/12/29 03:01:52;;;;;;;0.93;0.77;;;;;;;4.97;70.24;93361.41;5051082;28;20868;-71
2020/12/29 03:04:18;;;;;;;1.20;0.87;;;;;;;4.82;70.93;93361.75;5071096;28;20800;-70
2020/12/29 03:06:44;;;;;;;1.47;0.80;;;;;;;4.42;72.15;93374.94;5054283;28;20466;-70
2020/12/29 03:09:10;;;;;;;1.70;1.00;;;;;;;4.66;71.65;93370.84;5072484;28;20536;-70
2020/12/29 03:11:36;;;;;;;1.10;0.80;;;;;;;5.10;70.03;93372.69;5071441;28;20205;-71
2020/12/29 03:14:04;;;;;;;1.03;0.80;;;;;;;4.87;71.04;93376.66;5072525;28;20224;-69
2020/12/29 03:16:29;;;;;;;0.90;0.80;;;;;;;4.83;71.17;93376.31;5064870;28;20201;-72
2020/12/29 03:18:56;;;;;;;0.80;0.60;;;;;;;4.78;71.18;93383.13;5072151;28;20470;-71
2020/12/29 03:21:22;;;;;;;0.90;0.70;;;;;;;4.57;71.37;93393.63;5070940;28;20202;-72
2020/12/29 03:23:48;;;;;;;1.00;0.80;;;;;;;4.67;71.76;93381.97;5069695;28;20433;-69
2020/12/29 03:26:14;;;;;;;1.47;0.70;;;;;;;4.64;71.87;93397.94;5061935;28;20456;-70
2020/12/29 03:28:40;;;;;;;0.90;0.70;;;;;;;4.55;72.36;93397.41;5069013;28;20523;-71
2020/12/29 03:31:06;;;;;;;2.57;0.80;;;;;;;4.22;73.96;93400.97;5070182;28;20474;-71
2020/12/29 03:33:32;;;;;;;0.80;0.60;;;;;;;4.63;72.01;93396.38;5072293;28;20435;-70
2020/12/29 03:35:58;;;;;;;0.80;0.60;;;;;;;4.30;73.17;93403.31;5071953;28;20181;-71
2020/12/29 03:38:24;;;;;;;1.37;0.67;;;;;;;4.62;72.23;93416.31;5072214;28;20490;-71
2020/12/29 03:40:50;;;;;;;0.90;0.73;;;;;;;4.65;72.07;93421.09;5071530;28;20456;-71
2020/12/29 03:43:16;;;;;;;0.93;0.77;;;;;;;4.64;72.57;93424.69;5070638;28;20178;-71
2020/12/29 03:45:46;;;;;;;2.70;0.67;;;;;;;4.54;72.44;93425.13;5069530;28;20563;-70
2020/12/29 03:48:14;;;;;;;0.80;0.63;;;;;;;4.39;73.16;93428.00;5071304;28;20645;-72
2020/12/29 03:50:40;;;;;;;1.40;0.70;;;;;;;4.48;72.88;93436.31;5071091;28;20543;-71
2020/12/29 03:53:07;;;;;;;0.93;0.80;;;;;;;4.13;73.79;93434.88;5070454;28;20429;-70
2020/12/29 03:55:33;;;;;;;0.80;0.60;;;;;;;4.40;73.06;93439.16;5055797;28;20421;-71
2020/12/29 03:57:58;;;;;;;0.80;0.60;;;;;;;4.38;72.62;93438.56;5071709;28;20429;-71
2020/12/29 04:00:25;;;;;;;0.90;0.60;;;;;;;4.44;72.97;93435.94;5071449;28;20444;-71
2020/12/29 04:02:50;;;;;;;1.30;0.70;;;;;;;4.54;72.66;93432.09;5070821;28;20214;-71
2020/12/29 04:05:17;;;;;;;1.10;0.70;;;;;;;4.64;72.24;93445.44;5071059;28;20511;-71
2020/12/29 04:07:43;;;;;;;1.27;0.73;;;;;;;4.56;73.01;93443.06;5070944;28;20608;-71
2020/12/29 04:10:09;;;;;;;1.30;0.80;;;;;;;4.50;72.94;93449.09;5069951;28;20436;-70
2020/12/29 04:12:35;;;;;;;1.60;0.77;;;;;;;4.68;71.83;93445.81;5037208;28;20895;-72
2020/12/29 04:15:01;;;;;;;0.83;0.60;;;;;;;4.51;72.62;93461.06;5051733;28;20433;-72
2020/12/29 04:17:32;;;;;;;0.80;0.60;;;;;;;4.54;72.27;93450.25;5031407;28;20182;-72
2020/12/29 04:19:58;;;;;;;1.00;0.70;;;;;;;4.40;72.79;93450.34;5036208;28;20187;-71
2020/12/29 04:22:24;;;;;;;1.00;0.87;;;;;;;4.80;72.04;93451.13;5070457;28;20511;-71
2020/12/29 04:24:49;;;;;;;1.53;0.70;;;;;;;4.52;73.11;93452.28;5054851;28;20207;-71
2020/12/29 04:27:15;;;;;;;3.07;0.90;;;;;;;4.58;71.68;93452.25;5067856;28;20193;-70
2020/12/29 04:29:40;;;;;;;1.20;0.87;;;;;;;4.69;71.27;93444.81;5070876;28;20190;-72
2020/12/29 04:32:06;;;;;;;3.07;1.23;;;;;;;4.60;71.52;93454.63;5071362;28;20203;-71
2020/12/29 04:34:32;;;;;;;0.80;0.60;;;;;;;4.71;71.48;93463.56;5058090;28;20505;-69
2020/12/29 04:36:57;;;;;;;1.60;0.60;;;;;;;4.21;72.59;93467.56;5054652;28;20183;-71
2020/12/29 04:39:23;;;;;;;1.10;0.60;;;;;;;4.29;71.85;93461.31;5071244;28;20583;-71
2020/12/29 04:41:52;;;;;;;1.40;0.73;;;;;;;4.26;71.62;93464.34;5067641;28;20244;-70
2020/12/29 04:44:19;;;;;;;1.40;0.73;;;;;;;3.96;72.41;93470.00;5045500;28;20193;-71
2020/12/29 04:46:45;;;;;;;1.07;0.67;;;;;;;4.40;71.13;93493.59;5062264;28;20453;-70
2020/12/29 04:49:11;;;;;;;4.03;1.00;;;;;;;4.42;71.25;93492.38;5050508;28;20426;-70
2020/12/29 04:51:39;;;;;;;2.20;0.77;;;;;;;4.06;72.91;93501.47;5050773;28;20499;-71
2020/12/29 04:54:08;;;;;;;0.70;0.50;;;;;;;4.27;72.32;93502.22;5049303;28;20962;-71
2020/12/29 04:56:34;;;;;;;1.10;0.70;;;;;;;4.58;71.59;93500.72;5049025;28;20448;-72
2020/12/29 04:59:03;;;;;;;1.10;0.80;;;;;;;4.54;72.64;93502.13;5058563;28;20490;-71
2020/12/29 05:01:31;;;;;;;1.87;0.70;;;;;;;4.52;72.00;93502.34;5032715;28;20448;-71
2020/12/29 05:03:57;;;;;;;1.20;0.60;;;;;;;4.51;72.32;93502.56;5050528;28;20464;-72
2020/12/29 05:06:23;;;;;;;1.57;0.80;;;;;;;4.56;71.92;93510.50;5049554;28;20869;-72
2020/12/29 05:08:50;;;;;;;1.00;0.80;;;;;;;4.48;72.52;93508.13;5048437;28;20183;-71
2020/12/29 05:11:17;;;;;;;1.67;0.70;;;;;;;4.55;72.73;93503.72;5051848;28;20544;-70
2020/12/29 05:13:43;;;;;;;1.70;1.60;;;;;;;4.64;72.32;93501.69;5046018;28;20509;-71
2020/12/29 05:16:10;;;;;;;2.40;0.77;;;;;;;4.49;72.63;93512.31;5041507;28;20544;-71
2020/12/29 05:18:35;;;;;;;1.77;0.90;;;;;;;4.51;72.62;93518.09;5050621;28;20889;-71
2020/12/29 05:21:01;;;;;;;1.10;0.83;;;;;;;4.13;73.63;93524.78;5050551;28;20553;-70
2020/12/29 05:23:28;;;;;;;2.43;0.80;;;;;;;4.52;72.72;93522.28;5029747;28;20180;-71
2020/12/29 05:25:54;;;;;;;0.90;0.70;;;;;;;4.36;73.21;93521.75;5046225;28;20484;-71
2020/12/29 05:28:20;;;;;;;0.90;0.80;;;;;;;4.14;74.63;93537.53;5056333;28;20422;-69
2020/12/29 05:30:53;;;;;;;1.03;0.80;;;;;;;4.02;73.74;93541.75;5050026;28;20284;-70
2020/12/29 05:33:19;;;;;;;0.90;0.80;;;;;;;4.36;73.14;93542.47;5049797;28;20595;-70
2020/12/29 05:35:44;;;;;;;1.63;0.70;;;;;;;4.22;73.30;93543.50;5050503;28;20432;-72
2020/12/29 05:38:11;;;;;;;1.80;0.70;;;;;;;4.17;74.09;93538.13;5050700;28;20614;-71
2020/12/29 05:40:37;;;;;;;0.80;0.50;;;;;;;4.06;74.27;93553.28;5049194;28;20242;-71
2020/12/29 05:43:03;;;;;;;1.07;0.70;;;;;;;3.99;75.34;93552.50;5060522;28;20458;-71
2020/12/29 05:45:30;;;;;;;0.80;0.60;;;;;;;4.22;73.92;93565.00;5044350;28;20465;-71
2020/12/29 05:47:58;;;;;;;1.20;0.70;;;;;;;4.40;73.51;93577.38;5050448;28;20425;-71
2020/12/29 05:50:24;;;;;;;1.20;0.63;;;;;;;4.37;73.57;93580.38;5053182;28;20456;-71
2020/12/29 05:53:05;;;;;;;0.90;0.80;;;;;;;4.08;73.76;93577.19;5052732;28;20881;-71
2020/12/29 05:55:31;;;;;;;1.00;0.70;;;;;;;4.36;73.44;93581.34;5053021;28;20513;-71
2020/12/29 05:58:02;;;;;;;1.70;0.80;;;;;;;3.96;75.21;93578.81;5053855;28;20820;-72
2020/12/29 06:00:28;;;;;;;1.00;0.70;;;;;;;4.35;74.12;93591.94;5053011;28;20790;-72
2020/12/29 06:02:55;;;;;;;1.47;0.80;;;;;;;4.03;74.47;93592.56;5051577;28;20421;-71
2020/12/29 06:05:29;;;;;;;1.67;0.93;;;;;;;4.02;75.49;93587.56;5053932;28;20207;-72
2020/12/29 06:07:57;;;;;;;1.80;0.90;;;;;;;4.05;74.92;93611.28;5052592;28;20429;-71
2020/12/29 06:10:24;;;;;;;1.27;0.80;;;;;;;4.20;74.41;93585.19;5052865;28;20446;-71
2020/12/29 06:12:54;;;;;;;4.67;0.77;;;;;;;3.96;74.70;93596.94;5053771;28;20440;-69
2020/12/29 06:15:25;;;;;;;1.40;1.00;;;;;;;4.09;74.40;93598.75;5047364;28;20521;-70
2020/12/29 06:18:00;;;;;;;1.87;1.30;;;;;;;4.22;74.12;93608.28;5052388;28;20437;-71
2020/12/29 06:20:35;;;;;;;2.80;1.20;;;;;;;4.24;73.33;93612.28;5053498;28;20439;-71
2020/12/29 06:23:02;;;;;;;1.47;0.70;;;;;;;3.93;74.95;93618.06;5052772;28;20578;-70
2020/12/29 06:25:32;;;;;;;2.00;0.90;;;;;;;4.01;74.40;93623.06;5053873;28;20456;-70
2020/12/29 06:28:00;;;;;;;1.00;0.80;;;;;;;4.14;74.31;93648.16;5056191;28;20515;-73
2020/12/29 06:30:26;;;;;;;2.60;0.90;;;;;;;4.25;73.91;93633.81;5061137;28;20544;-70
2020/12/29 06:32:53;;;;;;;1.53;0.90;;;;;;;3.94;74.64;93643.78;5052000;28;20524;-70
2020/12/29 06:35:19;;;;;;;3.13;1.00;;;;;;;3.67;75.29;93645.53;5052253;28;20179;-71
2020/12/29 06:37:52;;;;;;;1.30;0.80;;;;;;;3.88;75.10;93646.38;5053625;28;20520;-70
2020/12/29 06:40:19;;;;;;;1.60;1.00;;;;;;;3.97;74.47;93658.91;5018123;28;20179;-70
2020/12/29 06:42:45;;;;;;;1.33;0.70;;;;;;;4.15;74.11;93647.97;5044200;28;20437;-71
2020/12/29 06:45:12;;;;;;;2.13;1.10;;;;;;;4.07;73.93;93668.09;5052026;28;20552;-70
2020/12/29 06:47:40;;;;;;;2.40;1.30;;;;;;;4.28;73.99;93673.09;5053399;28;20433;-71
2020/12/29 06:50:22;;;;;;;2.50;0.97;;;;;;;4.12;74.36;93676.88;5060119;28;20807;-69
2020/12/29 06:53:15;;;;;;;1.50;0.87;;;;;;;3.78;75.06;93683.78;5051582;28;20449;-71
2020/12/29 06:55:46;;;;;;;0.93;0.80;;;;;;;4.02;74.47;93691.22;5071497;28;20858;-71
2020/12/29 06:58:33;;;;;;;1.20;0.80;;;;;;;3.88;75.30;93693.00;5052598;28;20426;-70
2020/12/29 07:01:18;;;;;;;1.30;0.80;;;;;;;4.29;73.32;93712.75;5070325;28;20441;-70
2020/12/29 07:03:44;;;;;;;3.40;1.40;;;;;;;4.04;73.48;93715.91;5073033;28;20814;-71
2020/12/29 07:06:09;;;;;;;1.40;0.90;;;;;;;3.99;74.44;93720.91;5073094;28;20468;-71
2020/12/29 07:08:36;;;;;;;1.47;0.90;;;;;;;3.93;74.98;93724.28;5072076;28;20429;-70
2020/12/29 07:11:15;;;;;;;2.03;0.97;;;;;;;4.06;74.69;93729.47;5073179;28;20218;-70
2020/12/29 07:13:41;;;;;;;1.10;0.80;;;;;;;3.97;74.40;93746.22;5063847;28;20430;-70
2020/12/29 07:16:11;;;;;;;1.63;1.10;;;;;;;4.24;73.64;93752.22;5069496;28;20421;-69
2020/12/29 07:18:42;;;;;;;1.37;0.90;;;;;;;4.18;73.31;93763.41;5071696;28;20212;-70
2020/12/29 07:21:21;;;;;;;1.80;1.33;;;;;;;3.97;74.27;93775.50;5071971;28;20548;-70
2020/12/29 07:23:50;;;;;;;1.20;0.90;;;;;;;4.26;73.30;93786.53;5062484;28;20946;-71
2020/12/29 07:26:18;;;;;;;2.27;0.90;;;;;;;4.33;73.17;93794.31;5070181;28;20522;-70
2020/12/29 07:28:44;;;;;;;3.27;1.20;;;;;;;4.28;73.03;93794.13;5069260;28;20428;-71
2020/12/29 07:31:14;;;;;;;2.03;1.20;;;;;;;3.91;74.48;93803.97;5071115;28;20950;-70
2020/12/29 07:33:53;;;;;;;2.70;1.10;;;;;;;4.39;73.34;93816.88;5072629;28;20182;-71
2020/12/29 07:36:22;;;;;;;2.80;1.17;;;;;;;4.43;72.81;93831.03;5072484;28;20520;-72
2020/12/29 07:38:49;;;;;;;1.50;1.40;;;;;;;4.26;73.55;93840.19;5070870;28;20556;-69
2020/12/29 07:41:16;;;;;;;1.50;1.00;;;;;;;4.30;72.71;93846.56;5069230;28;20448;-72
2020/12/29 07:43:43;;;;;;;2.03;1.00;;;;;;;4.58;71.82;93850.81;5070320;28;20515;-69
2020/12/29 07:46:09;;;;;;;3.33;1.20;;;;;;;4.49;72.90;93862.38;5072150;28;20506;-71
2020/12/29 07:48:35;;;;;;;4.00;1.40;;;;;;;4.81;71.82;93868.59;5071338;28;20420;-70
2020/12/29 07:51:01;;;;;;;2.63;1.10;;;;;;;4.68;71.91;93882.34;5071207;28;20869;-70
2020/12/29 07:53:26;;;;;;;2.10;0.83;;;;;;;3.87;74.62;93888.28;5061292;28;20198;-70
2020/12/29 07:55:52;;;;;;;1.17;0.87;;;;;;;4.64;72.59;93896.72;5073069;28;20740;-70
2020/12/29 07:58:18;;;;;;;2.40;1.00;;;;;;;4.82;71.69;93892.75;5071845;28;20179;-71
2020/12/29 08:00:44;;;;;;;2.53;0.90;;;;;;;4.74;71.95;93904.09;5070497;28;20456;-72
2020/12/29 08:03:12;;;;;;;1.87;1.03;;;;;;;5.03;71.56;93910.75;5073815;28;20413;-72
2020/12/29 08:05:38;;;;;;;1.90;0.97;;;;;;;4.80;71.79;93911.13;5065702;28;20207;-70
2020/12/29 08:08:11;;;;;;;3.50;1.20;;;;;;;5.00;71.37;93913.75;5071913;28;20444;-71
2020/12/29 08:10:39;;;;;;;5.13;1.10;;;;;;;5.01;71.46;93920.53;5064004;28;20453;-71
2020/12/29 08:13:06;;;;;;;5.73;1.40;;;;;;;5.21;70.52;93932.72;5060057;28;20438;-73
2020/12/29 08:15:33;;;;;;;5.30;1.10;;;;;;;5.13;70.76;93925.91;5060481;28;21000;-71
2020/12/29 08:18:12;;;;;;;2.60;1.00;;;;;;;4.50;72.57;93944.34;5070076;28;20433;-72
2020/12/29 08:20:56;;;;;;;3.27;1.20;;;;;;;5.15;70.75;93943.91;5072050;28;21045;-70
2020/12/29 08:23:26;;;;;;;2.00;1.03;;;;;;;5.42;69.62;93941.31;5050271;28;20428;-71
2020/12/29 08:25:53;;;;;;;1.20;1.00;;;;;;;5.51;69.94;93953.09;5072551;28;20486;-72
2020/12/29 08:28:40;;;;;;;5.13;0.93;;;;;;;5.59;69.02;93960.69;5069262;28;20431;-71
2020/12/29 08:31:06;;;;;;;2.53;1.50;;;;;;;5.18;70.55;93969.44;5045389;28;20974;-72
2020/12/29 08:33:32;;;;;;;0.87;0.70;;;;;;;5.38;69.84;93969.47;5063535;28;20417;-71
2020/12/29 08:36:01;;;;;;;2.70;1.03;;;;;;;5.47;69.93;93988.25;5071617;28;20470;-71
2020/12/29 08:38:26;;;;;;;3.40;1.03;;;;;;;4.61;72.63;93996.44;5070717;28;20812;-71
2020/12/29 08:41:08;;;;;;;1.67;1.30;;;;;;;5.29;70.09;94007.03;5074542;28;20495;-70
2020/12/29 08:43:40;;;;;;;1.73;0.90;;;;;;;4.90;70.99;94014.53;5077423;28;20189;-71
2020/12/29 08:46:07;;;;;;;5.50;1.30;;;;;;;5.17;70.47;94022.38;5065131;28;20467;-72
2020/12/29 08:48:33;;;;;;;5.07;1.30;;;;;;;5.08;71.51;94026.97;5071109;28;20471;-70
2020/12/29 08:51:00;;;;;;;2.50;1.80;;;;;;;5.09;71.65;94033.75;5062477;28;20445;-71
2020/12/29 08:53:26;;;;;;;2.17;0.90;;;;;;;4.68;72.87;94037.97;5059082;28;20516;-71
2020/12/29 08:55:53;;;;;;;1.50;1.40;;;;;;;4.97;73.10;94059.47;5070726;28;20421;-70
2020/12/29 08:58:26;;;;;;;1.87;1.03;;;;;;;5.10;71.87;94070.88;5062826;28;20417;-73
2020/12/29 09:00:52;;;;;;;1.90;1.50;;;;;;;5.14;71.27;94065.09;5062566;28;20931;-69
2020/12/29 09:03:28;;;;;;;1.77;1.07;;;;;;;4.02;74.38;94082.47;5065405;28;20833;-72
2020/12/29 09:05:54;;;;;;;3.33;1.30;;;;;;;4.64;73.07;94088.66;5068660;28;20989;-71
2020/12/29 09:08:26;;;;;;;6.13;3.40;;;;;;;4.76;72.16;94091.50;5069538;28;20420;-70
2020/12/29 09:11:27;;;;;;;3.80;1.57;;;;;;;4.42;73.21;94098.31;5070648;28;20449;-71
2020/12/29 09:14:03;;;;;;;3.47;1.27;;;;;;;4.16;74.72;94115.28;5067282;28;20440;-71
2020/12/29 09:16:29;;;;;;;3.03;1.57;;;;;;;4.53;73.47;94120.31;5060750;28;20420;-71
2020/12/29 09:18:54;;;;;;;3.70;1.40;;;;;;;4.61;72.53;94130.53;5068096;28;20519;-71
2020/12/29 09:21:21;;;;;;;2.50;1.33;;;;;;;4.19;73.37;94142.59;5066504;28;20584;-72
2020/12/29 09:24:00;;;;;;;2.70;1.60;;;;;;;4.37;72.91;94150.72;5061867;28;20220;-71
2020/12/29 09:26:26;;;;;;;1.80;1.40;;;;;;;3.92;74.63;94157.91;5071140;28;20495;-71
2020/12/29 09:28:52;;;;;;;2.57;1.43;;;;;;;4.00;75.03;94163.78;5068756;28;20433;-71
2020/12/29 09:31:24;;;;;;;2.10;1.40;;;;;;;4.17;74.51;94163.53;5064943;28;20498;-71
2020/12/29 09:33:50;;;;;;;1.53;1.33;;;;;;;4.31;73.47;94161.84;5069996;28;20190;-70
2020/12/29 09:36:26;;;;;;;3.10;1.50;;;;;;;4.49;72.86;94161.38;5060369;28;20421;-71
2020/12/29 09:38:54;;;;;;;7.30;2.60;;;;;;;4.59;72.62;94171.41;5053097;28;20186;-71
2020/12/29 09:41:20;;;;;;;12.43;1.93;;;;;;;4.82;72.20;94178.16;5071520;28;20539;-71
2020/12/29 09:43:47;;;;;;;2.53;1.80;;;;;;;4.99;71.32;94179.44;5063158;28;20436;-71
2020/12/29 09:46:13;;;;;;;4.10;1.93;;;;;;;4.03;73.98;94198.91;5071190;28;20497;-71
2020/12/29 09:48:39;;;;;;;2.20;1.47;;;;;;;4.56;73.02;94200.31;5074071;28;20850;-72
2020/12/29 09:51:05;;;;;;;2.20;1.50;;;;;;;5.02;71.26;94210.22;5074023;28;20228;-72
2020/12/29 09:53:31;;;;;;;1.83;1.27;;;;;;;5.14;71.30;94202.69;5064972;28;20425;-70
2020/12/29 09:55:57;;;;;;;1.93;1.50;;;;;;;4.92;71.36;94225.31;5074273;28;20601;-72
2020/12/29 09:58:23;;;;;;;3.60;1.40;;;;;;;5.11;70.95;94223.81;5074628;28;20350;-71
2020/12/29 10:00:50;;;;;;;1.60;1.40;;;;;;;5.01;71.98;94239.75;5039082;28;20919;-72
2020/12/29 10:03:16;;;;;;;1.60;1.20;;;;;;;5.13;71.38;94241.81;5074373;28;21090;-71
2020/12/29 10:05:43;;;;;;;2.00;1.20;;;;;;;5.18;71.37;94257.63;5072321;28;20466;-71
2020/12/29 10:08:10;;;;;;;3.10;1.80;;;;;;;5.35;71.03;94253.72;5065101;28;20435;-72
2020/12/29 10:10:36;;;;;;;1.33;1.17;;;;;;;5.50;69.60;94258.78;5073533;28;20787;-70
2020/12/29 10:13:01;;;;;;;2.80;1.33;;;;;;;5.46;69.89;94257.59;5073273;28;20427;-70
2020/12/29 10:15:27;;;;;;;2.07;1.30;;;;;;;5.37;70.32;94269.94;5068206;28;20191;-73
2020/12/29 10:17:53;;;;;;;1.63;1.10;;;;;;;5.48;70.15;94270.38;5070712;28;20210;-72
2020/12/29 10:20:18;;;;;;;3.33;1.50;;;;;;;4.90;71.12;94276.63;5074360;28;20179;-71
2020/12/29 10:22:44;;;;;;;1.60;1.10;;;;;;;5.15;70.96;94283.97;5063062;28;20186;-70
2020/12/29 10:25:14;;;;;;;2.70;1.10;;;;;;;5.32;70.76;94285.25;5074201;28;20199;-72
2020/12/29 10:27:46;;;;;;;1.60;1.10;;;;;;;5.57;69.24;94287.41;5071118;28;20193;-72
2020/12/29 10:30:13;;;;;;;1.43;1.30;;;;;;;4.85;71.33;94286.75;5057803;28;20915;-70
2020/12/29 10:32:39;;;;;;;4.43;1.33;;;;;;;4.90;71.54;94294.78;5066054;28;20427;-72
2020/12/29 10:35:05;;;;;;;2.53;1.17;;;;;;;5.34;70.82;94301.47;5056425;28;20928;-71
2020/12/29 10:37:31;;;;;;;6.23;2.03;;;;;;;5.30;70.22;94308.03;5064616;28;20493;-71
2020/12/29 10:39:57;;;;;;;2.50;1.20;;;;;;;5.53;69.85;94306.97;5073132;28;20904;-71
2020/12/29 10:42:23;;;;;;;2.30;1.17;;;;;;;5.67;69.52;94311.22;5073532;28;20284;-72
2020/12/29 10:44:48;;;;;;;3.60;1.00;;;;;;;5.69;69.10;94311.06;5072302;28;20959;-70
2020/12/29 10:47:14;;;;;;;1.13;0.90;;;;;;;5.84;67.96;94314.31;5072040;28;20182;-73
2020/12/29 10:49:40;;;;;;;1.20;1.00;;;;;;;6.12;67.62;94317.84;5073003;28;20197;-71
2020/12/29 10:52:05;;;;;;;3.53;2.50;;;;;;;5.43;68.62;94327.28;5071286;28;20202;-71
2020/12/29 10:54:31;;;;;;;2.40;1.03;;;;;;;5.32;68.70;94324.22;5068026;28;20183;-71
2020/12/29 10:56:57;;;;;;;1.30;0.83;;;;;;;5.38;67.66;94338.22;5072496;28;20637;-72
2020/12/29 10:59:22;;;;;;;3.03;1.00;;;;;;;5.37;68.76;94339.22;5073215;28;20576;-70
2020/12/29 11:01:48;;;;;;;1.67;0.87;;;;;;;5.29;68.44;94342.81;5070887;28;20206;-71
2020/12/29 11:04:14;;;;;;;2.70;1.00;;;;;;;5.45;68.49;94356.47;5072828;28;20249;-72
2020/12/29 11:06:39;;;;;;;1.70;1.17;;;;;;;5.71;67.95;94352.41;5072806;28;20747;-72
2020/12/29 11:09:05;;;;;;;3.03;1.70;;;;;;;5.57;67.06;94356.75;5072665;28;20251;-72
2020/12/29 11:11:31;;;;;;;1.20;1.00;;;;;;;5.78;66.64;94358.47;5070709;28;20243;-70
2020/12/29 11:13:57;;;;;;;2.73;1.93;;;;;;;5.51;67.00;94360.91;5072195;28;20178;-70
2020/12/29 11:16:22;;;;;;;1.20;1.00;;;;;;;5.51;66.57;94366.09;5067193;28;20180;-71
2020/12/29 11:18:50;;;;;;;0.97;0.87;;;;;;;5.64;67.19;94360.19;5066562;28;20244;-71
2020/12/29 11:21:19;;;;;;;2.03;0.90;;;;;;;5.96;66.49;94355.34;5071139;28;20451;-70
2020/12/29 11:23:45;;;;;;;1.47;1.03;;;;;;;5.48;67.45;94361.28;5062793;28;20447;-72
2020/12/29 11:26:15;;;;;;;4.03;1.30;;;;;;;5.07;67.86;94357.59;5067844;28;20449;-71
2020/12/29 11:28:41;;;;;;;5.33;0.90;;;;;;;5.61;66.94;94360.56;5072824;28;20413;-70
2020/12/29 11:31:14;;;;;;;1.63;0.80;;;;;;;5.91;65.75;94355.13;5072759;28;20433;-71
2020/12/29 11:33:40;;;;;;;1.90;0.97;;;;;;;5.96;65.75;94356.16;5070641;28;20232;-71
2020/12/29 11:36:06;;;;;;;2.10;1.40;;;;;;;6.02;65.78;94362.41;5069729;28;20414;-71
2020/12/29 11:38:32;;;;;;;2.00;1.00;;;;;;;5.83;65.00;94371.69;5049740;28;20542;-71
2020/12/29 11:40:58;;;;;;;1.20;0.90;;;;;;;6.40;64.04;94367.13;5072019;28;20440;-72
2020/12/29 11:43:23;;;;;;;1.77;0.80;;;;;;;6.08;63.71;94358.22;5072597;28;20190;-71